sensor_id;sensor_type;location;lat;lon;timestamp;P1;durP1;ratioP1;P2;durP2;ratioP2
40907;SDS011;51055;59.436;24.778;2024-02-23T00:01:02;8.95;;;4.43;;
40907;SDS011;51055;59.436;24.778;2024-02-23T00:03:30;6.93;;;4.63;;
40907;SDS011;51055;59.436;24.778;2024-02-23T00:05:58;7.75;;;4.93;;
40907;SDS011;51055;59.436;24.778;2024-02-23T00:08:26;6.95;;;4.60;;
40907;SDS011;51055;59.436;24.778;2024-02-23T00:10:53;7.00;;;4.32;;
40907;SDS011;51055;59.436;24.778;2024-02-23T00:13:21;6.63;;;4.63;;
40907;SDS011;51055;59.436;24.778;2024-02-23T00:15:48;6.90;;;4.68;;
40907;SDS011;51055;59.436;24.778;2024-02-23T00:18:16;8.88;;;4.90;;
40907;SDS011;51055;59.436;24.778;2024-02-23T00:20:44;8.43;;;4.97;;
40907;SDS011;51055;59.436;24.778;2024-02-23T00:23:12;8.23;;;4.90;;
40907;SDS011;51055;59.436;24.778;2024-02-23T00:25:40;7.93;;;5.05;;
40907;SDS011;51055;59.436;24.778;2024-02-23T00:28:07;8.70;;;5.30;;
40907;SDS011;51055;59.436;24.778;2024-02-23T00:30:35;9.60;;;4.85;;
40907;SDS011;51055;59.436;24.778;2024-02-23T00:33:03;10.53;;;5.27;;
40907;SDS011;51055;59.436;24.778;2024-02-23T00:35:30;8.82;;;5.70;;
40907;SDS011;51055;59.436;24.778;2024-02-23T00:37:58;7.45;;;5.00;;
40907;SDS011;51055;59.436;24.778;2024-02-23T00:40:26;8.93;;;5.30;;
40907;SDS011;51055;59.436;24.778;2024-02-23T00:42:53;9.50;;;5.20;;
40907;SDS011;51055;59.436;24.778;2024-02-23T00:45:21;8.95;;;5.55;;
40907;SDS011;51055;59.436;24.778;2024-02-23T00:47:49;9.25;;;5.65;;
40907;SDS011;51055;59.436;24.778;2024-02-23T00:50:16;9.60;;;5.68;;
40907;SDS011;51055;59.436;24.778;2024-02-23T00:52:44;9.02;;;5.50;;
40907;SDS011;51055;59.436;24.778;2024-02-23T00:55:12;9.20;;;5.95;;
40907;SDS011;51055;59.436;24.778;2024-02-23T00:57:39;8.85;;;5.65;;
40907;SDS011;51055;59.436;24.778;2024-02-23T01:00:07;9.68;;;5.88;;
40907;SDS011;51055;59.436;24.778;2024-02-23T01:02:38;8.70;;;5.57;;
40907;SDS011;51055;59.436;24.778;2024-02-23T01:05:06;10.90;;;5.45;;
40907;SDS011;51055;59.436;24.778;2024-02-23T01:07:36;10.02;;;5.88;;
40907;SDS011;51055;59.436;24.778;2024-02-23T01:10:04;8.93;;;5.82;;
40907;SDS011;51055;59.436;24.778;2024-02-23T01:12:32;6.75;;;4.28;;
40907;SDS011;51055;59.436;24.778;2024-02-23T01:14:59;8.93;;;5.82;;
40907;SDS011;51055;59.436;24.778;2024-02-23T01:17:32;9.23;;;5.78;;
40907;SDS011;51055;59.436;24.778;2024-02-23T01:20:00;6.83;;;4.70;;
40907;SDS011;51055;59.436;24.778;2024-02-23T01:22:27;9.93;;;6.28;;
40907;SDS011;51055;59.436;24.778;2024-02-23T01:24:55;10.90;;;6.53;;
40907;SDS011;51055;59.436;24.778;2024-02-23T01:27:22;9.52;;;6.10;;
40907;SDS011;51055;59.436;24.778;2024-02-23T01:29:50;10.48;;;6.93;;
40907;SDS011;51055;59.436;24.778;2024-02-23T01:32:17;9.15;;;6.40;;
40907;SDS011;51055;59.436;24.778;2024-02-23T01:34:45;9.35;;;6.60;;
40907;SDS011;51055;59.436;24.778;2024-02-23T01:37:13;10.32;;;6.88;;
40907;SDS011;51055;59.436;24.778;2024-02-23T01:39:40;9.82;;;6.57;;
40907;SDS011;51055;59.436;24.778;2024-02-23T01:42:08;10.70;;;6.80;;
40907;SDS011;51055;59.436;24.778;2024-02-23T01:44:35;11.18;;;6.85;;
40907;SDS011;51055;59.436;24.778;2024-02-23T01:47:03;10.93;;;6.60;;
40907;SDS011;51055;59.436;24.778;2024-02-23T01:49:30;10.98;;;6.82;;
40907;SDS011;51055;59.436;24.778;2024-02-23T01:52:00;11.63;;;7.47;;
40907;SDS011;51055;59.436;24.778;2024-02-23T01:54:29;10.63;;;7.10;;
40907;SDS011;51055;59.436;24.778;2024-02-23T01:56:57;12.57;;;7.32;;
40907;SDS011;51055;59.436;24.778;2024-02-23T01:59:32;11.20;;;7.43;;
40907;SDS011;51055;59.436;24.778;2024-02-23T02:01:59;13.27;;;7.75;;
40907;SDS011;51055;59.436;24.778;2024-02-23T02:04:27;12.02;;;7.07;;
40907;SDS011;51055;59.436;24.778;2024-02-23T02:06:55;12.25;;;7.65;;
40907;SDS011;51055;59.436;24.778;2024-02-23T02:09:22;13.80;;;7.95;;
40907;SDS011;51055;59.436;24.778;2024-02-23T02:11:50;11.98;;;8.40;;
40907;SDS011;51055;59.436;24.778;2024-02-23T02:14:18;9.88;;;6.22;;
40907;SDS011;51055;59.436;24.778;2024-02-23T02:16:46;13.77;;;8.43;;
40907;SDS011;51055;59.436;24.778;2024-02-23T02:19:13;14.82;;;9.02;;
40907;SDS011;51055;59.436;24.778;2024-02-23T02:21:41;14.32;;;8.57;;
40907;SDS011;51055;59.436;24.778;2024-02-23T02:24:08;15.60;;;8.48;;
40907;SDS011;51055;59.436;24.778;2024-02-23T02:26:39;15.82;;;9.07;;
40907;SDS011;51055;59.436;24.778;2024-02-23T02:29:07;14.52;;;9.40;;
40907;SDS011;51055;59.436;24.778;2024-02-23T02:31:34;14.00;;;9.38;;
40907;SDS011;51055;59.436;24.778;2024-02-23T02:34:04;16.63;;;9.90;;
40907;SDS011;51055;59.436;24.778;2024-02-23T02:36:32;16.40;;;10.30;;
40907;SDS011;51055;59.436;24.778;2024-02-23T02:38:59;14.77;;;9.55;;
40907;SDS011;51055;59.436;24.778;2024-02-23T02:41:28;15.98;;;9.85;;
40907;SDS011;51055;59.436;24.778;2024-02-23T02:43:56;15.48;;;9.68;;
40907;SDS011;51055;59.436;24.778;2024-02-23T02:46:23;16.73;;;10.38;;
40907;SDS011;51055;59.436;24.778;2024-02-23T02:48:51;16.45;;;10.73;;
40907;SDS011;51055;59.436;24.778;2024-02-23T02:51:18;14.95;;;10.15;;
40907;SDS011;51055;59.436;24.778;2024-02-23T02:53:46;15.90;;;10.57;;
40907;SDS011;51055;59.436;24.778;2024-02-23T02:56:13;15.75;;;10.52;;
40907;SDS011;51055;59.436;24.778;2024-02-23T02:58:41;16.73;;;11.02;;
40907;SDS011;51055;59.436;24.778;2024-02-23T03:01:09;16.88;;;10.50;;
40907;SDS011;51055;59.436;24.778;2024-02-23T03:03:36;20.13;;;10.82;;
40907;SDS011;51055;59.436;24.778;2024-02-23T03:06:04;16.27;;;11.15;;
40907;SDS011;51055;59.436;24.778;2024-02-23T03:08:33;17.95;;;11.07;;
40907;SDS011;51055;59.436;24.778;2024-02-23T03:11:00;20.45;;;11.90;;
40907;SDS011;51055;59.436;24.778;2024-02-23T03:13:28;18.20;;;11.00;;
40907;SDS011;51055;59.436;24.778;2024-02-23T03:15:56;19.60;;;11.60;;
40907;SDS011;51055;59.436;24.778;2024-02-23T03:18:23;19.40;;;11.75;;
40907;SDS011;51055;59.436;24.778;2024-02-23T03:20:51;21.92;;;11.98;;
40907;SDS011;51055;59.436;24.778;2024-02-23T03:23:18;20.38;;;11.82;;
40907;SDS011;51055;59.436;24.778;2024-02-23T03:25:46;18.95;;;11.70;;
40907;SDS011;51055;59.436;24.778;2024-02-23T03:28:13;18.45;;;11.48;;
40907;SDS011;51055;59.436;24.778;2024-02-23T03:30:40;19.67;;;12.05;;
40907;SDS011;51055;59.436;24.778;2024-02-23T03:33:08;21.08;;;12.27;;
40907;SDS011;51055;59.436;24.778;2024-02-23T03:35:35;22.60;;;12.27;;
40907;SDS011;51055;59.436;24.778;2024-02-23T03:38:03;20.42;;;12.00;;
40907;SDS011;51055;59.436;24.778;2024-02-23T03:40:31;20.83;;;12.82;;
40907;SDS011;51055;59.436;24.778;2024-02-23T03:42:58;21.98;;;12.95;;
40907;SDS011;51055;59.436;24.778;2024-02-23T03:45:25;19.83;;;12.30;;
40907;SDS011;51055;59.436;24.778;2024-02-23T03:47:53;22.63;;;13.55;;
40907;SDS011;51055;59.436;24.778;2024-02-23T03:50:20;19.02;;;12.55;;
40907;SDS011;51055;59.436;24.778;2024-02-23T03:52:48;20.13;;;12.35;;
40907;SDS011;51055;59.436;24.778;2024-02-23T03:55:15;19.30;;;12.88;;
40907;SDS011;51055;59.436;24.778;2024-02-23T03:57:43;22.33;;;12.38;;
40907;SDS011;51055;59.436;24.778;2024-02-23T04:00:13;19.63;;;12.73;;
40907;SDS011;51055;59.436;24.778;2024-02-23T04:02:41;22.60;;;12.95;;
40907;SDS011;51055;59.436;24.778;2024-02-23T04:05:09;25.20;;;12.90;;
40907;SDS011;51055;59.436;24.778;2024-02-23T04:07:36;20.70;;;12.52;;
40907;SDS011;51055;59.436;24.778;2024-02-23T04:10:03;20.63;;;12.48;;
40907;SDS011;51055;59.436;24.778;2024-02-23T04:15:00;20.98;;;13.05;;
40907;SDS011;51055;59.436;24.778;2024-02-23T04:17:27;19.77;;;12.50;;
40907;SDS011;51055;59.436;24.778;2024-02-23T04:19:55;19.85;;;12.48;;
40907;SDS011;51055;59.436;24.778;2024-02-23T04:22:22;20.45;;;12.23;;
40907;SDS011;51055;59.436;24.778;2024-02-23T04:24:50;19.20;;;12.23;;
40907;SDS011;51055;59.436;24.778;2024-02-23T04:27:17;19.48;;;11.77;;
40907;SDS011;51055;59.436;24.778;2024-02-23T04:29:45;22.77;;;12.93;;
40907;SDS011;51055;59.436;24.778;2024-02-23T04:32:12;21.60;;;12.02;;
40907;SDS011;51055;59.436;24.778;2024-02-23T04:34:39;18.90;;;12.57;;
40907;SDS011;51055;59.436;24.778;2024-02-23T04:37:07;20.55;;;12.55;;
40907;SDS011;51055;59.436;24.778;2024-02-23T04:39:35;22.25;;;13.73;;
40907;SDS011;51055;59.436;24.778;2024-02-23T04:42:02;21.20;;;12.77;;
40907;SDS011;51055;59.436;24.778;2024-02-23T04:44:30;19.10;;;12.30;;
40907;SDS011;51055;59.436;24.778;2024-02-23T04:46:57;18.35;;;11.95;;
40907;SDS011;51055;59.436;24.778;2024-02-23T04:49:25;19.95;;;12.80;;
40907;SDS011;51055;59.436;24.778;2024-02-23T04:51:53;21.40;;;12.93;;
40907;SDS011;51055;59.436;24.778;2024-02-23T04:54:20;20.40;;;13.20;;
40907;SDS011;51055;59.436;24.778;2024-02-23T04:56:48;18.67;;;11.70;;
40907;SDS011;51055;59.436;24.778;2024-02-23T04:59:15;21.05;;;12.82;;
40907;SDS011;51055;59.436;24.778;2024-02-23T05:01:43;20.05;;;12.82;;
40907;SDS011;51055;59.436;24.778;2024-02-23T05:04:10;21.90;;;12.60;;
40907;SDS011;51055;59.436;24.778;2024-02-23T05:06:38;23.63;;;13.10;;
40907;SDS011;51055;59.436;24.778;2024-02-23T05:09:05;22.05;;;12.85;;
40907;SDS011;51055;59.436;24.778;2024-02-23T05:11:36;20.02;;;12.27;;
40907;SDS011;51055;59.436;24.778;2024-02-23T05:14:04;20.80;;;12.80;;
40907;SDS011;51055;59.436;24.778;2024-02-23T05:16:31;20.50;;;12.02;;
40907;SDS011;51055;59.436;24.778;2024-02-23T05:18:59;20.15;;;12.77;;
40907;SDS011;51055;59.436;24.778;2024-02-23T05:21:26;20.65;;;12.85;;
40907;SDS011;51055;59.436;24.778;2024-02-23T05:23:54;19.27;;;12.27;;
40907;SDS011;51055;59.436;24.778;2024-02-23T05:26:21;20.25;;;12.95;;
40907;SDS011;51055;59.436;24.778;2024-02-23T05:28:49;21.67;;;12.95;;
40907;SDS011;51055;59.436;24.778;2024-02-23T05:31:16;19.60;;;12.57;;
40907;SDS011;51055;59.436;24.778;2024-02-23T05:33:44;21.88;;;12.60;;
40907;SDS011;51055;59.436;24.778;2024-02-23T05:36:15;21.35;;;13.35;;
40907;SDS011;51055;59.436;24.778;2024-02-23T05:38:43;24.35;;;13.68;;
40907;SDS011;51055;59.436;24.778;2024-02-23T05:41:13;21.25;;;12.25;;
40907;SDS011;51055;59.436;24.778;2024-02-23T05:43:41;23.27;;;12.65;;
40907;SDS011;51055;59.436;24.778;2024-02-23T05:46:08;23.33;;;13.88;;
40907;SDS011;51055;59.436;24.778;2024-02-23T05:48:35;23.02;;;13.07;;
40907;SDS011;51055;59.436;24.778;2024-02-23T05:51:03;19.52;;;10.55;;
40907;SDS011;51055;59.436;24.778;2024-02-23T05:53:31;23.48;;;14.35;;
40907;SDS011;51055;59.436;24.778;2024-02-23T05:56:00;21.33;;;13.27;;
40907;SDS011;51055;59.436;24.778;2024-02-23T05:58:28;21.95;;;13.38;;
40907;SDS011;51055;59.436;24.778;2024-02-23T06:00:55;22.50;;;13.40;;
40907;SDS011;51055;59.436;24.778;2024-02-23T06:03:23;20.90;;;12.48;;
40907;SDS011;51055;59.436;24.778;2024-02-23T06:05:50;23.20;;;14.25;;
40907;SDS011;51055;59.436;24.778;2024-02-23T06:08:18;21.92;;;13.75;;
40907;SDS011;51055;59.436;24.778;2024-02-23T06:10:45;23.75;;;15.32;;
40907;SDS011;51055;59.436;24.778;2024-02-23T06:13:13;23.67;;;13.95;;
40907;SDS011;51055;59.436;24.778;2024-02-23T06:15:40;23.17;;;13.70;;
40907;SDS011;51055;59.436;24.778;2024-02-23T06:18:09;22.83;;;13.63;;
40907;SDS011;51055;59.436;24.778;2024-02-23T06:20:37;21.63;;;13.52;;
40907;SDS011;51055;59.436;24.778;2024-02-23T06:23:04;29.73;;;15.45;;
40907;SDS011;51055;59.436;24.778;2024-02-23T06:25:32;23.80;;;14.55;;
40907;SDS011;51055;59.436;24.778;2024-02-23T06:27:59;25.67;;;16.13;;
40907;SDS011;51055;59.436;24.778;2024-02-23T06:30:27;23.85;;;14.05;;
40907;SDS011;51055;59.436;24.778;2024-02-23T06:32:55;15.77;;;9.98;;
40907;SDS011;51055;59.436;24.778;2024-02-23T06:35:22;23.77;;;13.55;;
40907;SDS011;51055;59.436;24.778;2024-02-23T06:37:50;23.08;;;13.88;;
40907;SDS011;51055;59.436;24.778;2024-02-23T06:40:18;24.35;;;14.30;;
40907;SDS011;51055;59.436;24.778;2024-02-23T06:42:45;22.38;;;14.50;;
40907;SDS011;51055;59.436;24.778;2024-02-23T06:45:13;22.27;;;14.75;;
40907;SDS011;51055;59.436;24.778;2024-02-23T06:47:40;24.75;;;14.20;;
40907;SDS011;51055;59.436;24.778;2024-02-23T06:50:10;21.10;;;13.07;;
40907;SDS011;51055;59.436;24.778;2024-02-23T06:52:38;18.80;;;11.38;;
40907;SDS011;51055;59.436;24.778;2024-02-23T06:55:05;21.88;;;13.75;;
40907;SDS011;51055;59.436;24.778;2024-02-23T06:57:34;22.38;;;13.75;;
40907;SDS011;51055;59.436;24.778;2024-02-23T07:00:01;19.60;;;12.68;;
40907;SDS011;51055;59.436;24.778;2024-02-23T07:02:29;23.23;;;13.75;;
40907;SDS011;51055;59.436;24.778;2024-02-23T07:04:59;23.20;;;12.63;;
40907;SDS011;51055;59.436;24.778;2024-02-23T07:07:27;21.48;;;13.20;;
40907;SDS011;51055;59.436;24.778;2024-02-23T07:09:56;23.17;;;14.13;;
40907;SDS011;51055;59.436;24.778;2024-02-23T07:12:23;29.02;;;16.27;;
40907;SDS011;51055;59.436;24.778;2024-02-23T07:14:52;27.33;;;14.52;;
40907;SDS011;51055;59.436;24.778;2024-02-23T07:17:20;24.10;;;13.40;;
40907;SDS011;51055;59.436;24.778;2024-02-23T07:19:47;21.77;;;13.52;;
40907;SDS011;51055;59.436;24.778;2024-02-23T07:22:15;20.95;;;13.25;;
40907;SDS011;51055;59.436;24.778;2024-02-23T07:24:43;21.50;;;13.57;;
40907;SDS011;51055;59.436;24.778;2024-02-23T07:27:11;21.30;;;12.45;;
40907;SDS011;51055;59.436;24.778;2024-02-23T07:29:38;19.30;;;12.48;;
40907;SDS011;51055;59.436;24.778;2024-02-23T07:32:06;21.80;;;13.73;;
40907;SDS011;51055;59.436;24.778;2024-02-23T07:34:34;23.40;;;14.25;;
40907;SDS011;51055;59.436;24.778;2024-02-23T07:37:02;18.80;;;12.10;;
40907;SDS011;51055;59.436;24.778;2024-02-23T07:39:30;19.98;;;12.05;;
40907;SDS011;51055;59.436;24.778;2024-02-23T07:41:58;21.48;;;12.98;;
40907;SDS011;51055;59.436;24.778;2024-02-23T07:44:25;21.52;;;12.55;;
40907;SDS011;51055;59.436;24.778;2024-02-23T07:46:53;20.65;;;13.38;;
40907;SDS011;51055;59.436;24.778;2024-02-23T07:51:50;22.17;;;14.82;;
40907;SDS011;51055;59.436;24.778;2024-02-23T07:54:17;22.65;;;13.70;;
40907;SDS011;51055;59.436;24.778;2024-02-23T07:56:45;21.45;;;12.85;;
40907;SDS011;51055;59.436;24.778;2024-02-23T07:59:12;19.55;;;12.05;;
40907;SDS011;51055;59.436;24.778;2024-02-23T08:01:40;18.50;;;12.57;;
40907;SDS011;51055;59.436;24.778;2024-02-23T08:04:07;20.65;;;12.90;;
40907;SDS011;51055;59.436;24.778;2024-02-23T08:06:34;17.27;;;11.18;;
40907;SDS011;51055;59.436;24.778;2024-02-23T08:09:02;17.90;;;11.75;;
40907;SDS011;51055;59.436;24.778;2024-02-23T08:11:30;20.17;;;11.77;;
40907;SDS011;51055;59.436;24.778;2024-02-23T08:14:01;17.98;;;11.70;;
40907;SDS011;51055;59.436;24.778;2024-02-23T08:16:30;20.90;;;12.35;;
40907;SDS011;51055;59.436;24.778;2024-02-23T08:18:58;20.30;;;12.10;;
40907;SDS011;51055;59.436;24.778;2024-02-23T08:21:25;16.98;;;11.55;;
40907;SDS011;51055;59.436;24.778;2024-02-23T08:23:53;12.80;;;8.50;;
40907;SDS011;51055;59.436;24.778;2024-02-23T08:26:21;18.92;;;11.98;;
40907;SDS011;51055;59.436;24.778;2024-02-23T08:28:49;19.70;;;12.35;;
40907;SDS011;51055;59.436;24.778;2024-02-23T08:31:16;20.80;;;11.57;;
40907;SDS011;51055;59.436;24.778;2024-02-23T08:33:44;17.33;;;10.80;;
40907;SDS011;51055;59.436;24.778;2024-02-23T08:36:12;18.85;;;11.75;;
40907;SDS011;51055;59.436;24.778;2024-02-23T08:38:39;19.27;;;11.82;;
40907;SDS011;51055;59.436;24.778;2024-02-23T08:41:07;19.48;;;12.10;;
40907;SDS011;51055;59.436;24.778;2024-02-23T08:43:35;19.58;;;11.75;;
40907;SDS011;51055;59.436;24.778;2024-02-23T08:46:04;19.25;;;12.90;;
40907;SDS011;51055;59.436;24.778;2024-02-23T08:48:36;18.23;;;11.90;;
40907;SDS011;51055;59.436;24.778;2024-02-23T08:51:04;19.02;;;11.57;;
40907;SDS011;51055;59.436;24.778;2024-02-23T08:53:32;17.42;;;11.52;;
40907;SDS011;51055;59.436;24.778;2024-02-23T08:55:59;29.35;;;19.60;;
40907;SDS011;51055;59.436;24.778;2024-02-23T08:58:27;13.33;;;9.13;;
40907;SDS011;51055;59.436;24.778;2024-02-23T09:00:55;18.38;;;11.73;;
40907;SDS011;51055;59.436;24.778;2024-02-23T09:03:22;17.60;;;11.77;;
40907;SDS011;51055;59.436;24.778;2024-02-23T09:05:50;18.85;;;11.32;;
40907;SDS011;51055;59.436;24.778;2024-02-23T09:08:18;20.33;;;12.27;;
40907;SDS011;51055;59.436;24.778;2024-02-23T09:10:45;20.23;;;12.68;;
40907;SDS011;51055;59.436;24.778;2024-02-23T09:13:13;20.95;;;13.38;;
40907;SDS011;51055;59.436;24.778;2024-02-23T09:15:41;16.20;;;11.43;;
40907;SDS011;51055;59.436;24.778;2024-02-23T09:18:10;20.48;;;12.63;;
40907;SDS011;51055;59.436;24.778;2024-02-23T09:20:37;19.02;;;12.32;;
40907;SDS011;51055;59.436;24.778;2024-02-23T09:23:05;19.42;;;12.35;;
40907;SDS011;51055;59.436;24.778;2024-02-23T09:25:33;19.27;;;12.05;;
40907;SDS011;51055;59.436;24.778;2024-02-23T09:28:00;18.20;;;11.70;;
40907;SDS011;51055;59.436;24.778;2024-02-23T09:30:28;20.05;;;12.35;;
40907;SDS011;51055;59.436;24.778;2024-02-23T09:32:55;19.48;;;12.82;;
40907;SDS011;51055;59.436;24.778;2024-02-23T09:35:23;18.67;;;12.07;;
40907;SDS011;51055;59.436;24.778;2024-02-23T09:37:50;19.90;;;13.05;;
40907;SDS011;51055;59.436;24.778;2024-02-23T09:40:18;18.73;;;12.10;;
40907;SDS011;51055;59.436;24.778;2024-02-23T09:42:49;19.25;;;13.35;;
40907;SDS011;51055;59.436;24.778;2024-02-23T09:45:20;17.60;;;12.32;;
40907;SDS011;51055;59.436;24.778;2024-02-23T09:47:48;19.98;;;12.82;;
40907;SDS011;51055;59.436;24.778;2024-02-23T09:50:16;19.67;;;12.80;;
40907;SDS011;51055;59.436;24.778;2024-02-23T09:52:45;19.20;;;11.90;;
40907;SDS011;51055;59.436;24.778;2024-02-23T09:55:13;16.20;;;9.85;;
40907;SDS011;51055;59.436;24.778;2024-02-23T09:57:41;21.17;;;12.55;;
40907;SDS011;51055;59.436;24.778;2024-02-23T10:00:09;13.98;;;10.52;;
40907;SDS011;51055;59.436;24.778;2024-02-23T10:02:37;21.60;;;13.70;;
40907;SDS011;51055;59.436;24.778;2024-02-23T10:05:04;19.63;;;13.40;;
40907;SDS011;51055;59.436;24.778;2024-02-23T10:07:34;21.38;;;12.45;;
40907;SDS011;51055;59.436;24.778;2024-02-23T10:10:06;15.63;;;10.30;;
40907;SDS011;51055;59.436;24.778;2024-02-23T10:12:34;19.10;;;13.07;;
40907;SDS011;51055;59.436;24.778;2024-02-23T10:15:02;23.27;;;12.60;;
40907;SDS011;51055;59.436;24.778;2024-02-23T10:17:31;20.27;;;13.65;;
40907;SDS011;51055;59.436;24.778;2024-02-23T10:20:02;19.70;;;13.13;;
40907;SDS011;51055;59.436;24.778;2024-02-23T10:22:32;19.70;;;14.05;;
40907;SDS011;51055;59.436;24.778;2024-02-23T10:24:59;20.42;;;13.95;;
40907;SDS011;51055;59.436;24.778;2024-02-23T10:27:27;21.55;;;13.73;;
40907;SDS011;51055;59.436;24.778;2024-02-23T10:29:55;18.88;;;13.15;;
40907;SDS011;51055;59.436;24.778;2024-02-23T10:32:22;20.02;;;13.07;;
40907;SDS011;51055;59.436;24.778;2024-02-23T10:34:50;20.88;;;13.25;;
40907;SDS011;51055;59.436;24.778;2024-02-23T10:37:20;20.50;;;13.75;;
40907;SDS011;51055;59.436;24.778;2024-02-23T10:42:16;22.20;;;13.63;;
40907;SDS011;51055;59.436;24.778;2024-02-23T10:44:46;18.08;;;12.93;;
40907;SDS011;51055;59.436;24.778;2024-02-23T10:47:13;18.60;;;12.82;;
40907;SDS011;51055;59.436;24.778;2024-02-23T10:49:41;18.52;;;12.25;;
40907;SDS011;51055;59.436;24.778;2024-02-23T10:52:08;18.70;;;12.32;;
40907;SDS011;51055;59.436;24.778;2024-02-23T10:54:39;17.90;;;12.45;;
40907;SDS011;51055;59.436;24.778;2024-02-23T10:57:07;18.98;;;12.43;;
40907;SDS011;51055;59.436;24.778;2024-02-23T10:59:35;20.85;;;12.95;;
40907;SDS011;51055;59.436;24.778;2024-02-23T11:02:02;18.63;;;12.45;;
40907;SDS011;51055;59.436;24.778;2024-02-23T11:04:31;14.10;;;9.35;;
40907;SDS011;51055;59.436;24.778;2024-02-23T11:07:00;19.90;;;12.77;;
40907;SDS011;51055;59.436;24.778;2024-02-23T11:09:32;20.23;;;14.00;;
40907;SDS011;51055;59.436;24.778;2024-02-23T11:12:03;20.10;;;13.43;;
40907;SDS011;51055;59.436;24.778;2024-02-23T11:14:34;18.15;;;12.05;;
40907;SDS011;51055;59.436;24.778;2024-02-23T11:17:02;18.70;;;12.27;;
40907;SDS011;51055;59.436;24.778;2024-02-23T11:19:34;19.35;;;12.68;;
40907;SDS011;51055;59.436;24.778;2024-02-23T11:22:02;20.55;;;12.43;;
40907;SDS011;51055;59.436;24.778;2024-02-23T11:24:30;17.63;;;11.52;;
40907;SDS011;51055;59.436;24.778;2024-02-23T11:26:58;14.13;;;9.57;;
40907;SDS011;51055;59.436;24.778;2024-02-23T11:31:56;17.15;;;12.32;;
40907;SDS011;51055;59.436;24.778;2024-02-23T11:34:27;19.38;;;12.77;;
40907;SDS011;51055;59.436;24.778;2024-02-23T11:36:55;17.65;;;12.77;;
40907;SDS011;51055;59.436;24.778;2024-02-23T11:39:23;18.77;;;12.57;;
40907;SDS011;51055;59.436;24.778;2024-02-23T11:41:51;19.70;;;12.45;;
40907;SDS011;51055;59.436;24.778;2024-02-23T11:44:18;16.70;;;12.27;;
40907;SDS011;51055;59.436;24.778;2024-02-23T11:46:46;18.85;;;12.95;;
40907;SDS011;51055;59.436;24.778;2024-02-23T11:49:14;13.90;;;9.45;;
40907;SDS011;51055;59.436;24.778;2024-02-23T11:51:42;19.52;;;12.57;;
40907;SDS011;51055;59.436;24.778;2024-02-23T11:54:10;17.95;;;12.82;;
40907;SDS011;51055;59.436;24.778;2024-02-23T11:56:37;18.20;;;12.88;;
40907;SDS011;51055;59.436;24.778;2024-02-23T11:59:05;16.92;;;12.23;;
40907;SDS011;51055;59.436;24.778;2024-02-23T12:01:32;18.77;;;12.80;;
40907;SDS011;51055;59.436;24.778;2024-02-23T12:04:00;17.58;;;12.30;;
40907;SDS011;51055;59.436;24.778;2024-02-23T12:06:28;16.95;;;11.88;;
40907;SDS011;51055;59.436;24.778;2024-02-23T12:08:58;18.05;;;12.25;;
40907;SDS011;51055;59.436;24.778;2024-02-23T12:11:25;18.42;;;11.75;;
40907;SDS011;51055;59.436;24.778;2024-02-23T12:13:53;17.52;;;12.48;;
40907;SDS011;51055;59.436;24.778;2024-02-23T12:16:22;18.85;;;12.85;;
40907;SDS011;51055;59.436;24.778;2024-02-23T12:18:53;18.63;;;12.90;;
40907;SDS011;51055;59.436;24.778;2024-02-23T12:21:23;18.25;;;12.68;;
40907;SDS011;51055;59.436;24.778;2024-02-23T12:23:51;18.95;;;12.60;;
40907;SDS011;51055;59.436;24.778;2024-02-23T12:26:18;18.80;;;12.82;;
40907;SDS011;51055;59.436;24.778;2024-02-23T12:28:46;18.17;;;12.73;;
40907;SDS011;51055;59.436;24.778;2024-02-23T12:31:14;20.83;;;12.45;;
40907;SDS011;51055;59.436;24.778;2024-02-23T12:33:41;19.88;;;12.80;;
40907;SDS011;51055;59.436;24.778;2024-02-23T12:36:10;19.23;;;13.20;;
40907;SDS011;51055;59.436;24.778;2024-02-23T12:38:37;21.97;;;14.43;;
40907;SDS011;51055;59.436;24.778;2024-02-23T12:41:05;17.23;;;12.80;;
40907;SDS011;51055;59.436;24.778;2024-02-23T12:43:33;18.33;;;12.88;;
40907;SDS011;51055;59.436;24.778;2024-02-23T12:46:00;19.15;;;13.68;;
40907;SDS011;51055;59.436;24.778;2024-02-23T12:48:30;19.30;;;13.68;;
40907;SDS011;51055;59.436;24.778;2024-02-23T12:50:58;19.70;;;13.52;;
40907;SDS011;51055;59.436;24.778;2024-02-23T12:58:31;17.33;;;12.90;;
40907;SDS011;51055;59.436;24.778;2024-02-23T13:00:59;19.57;;;13.87;;
40907;SDS011;51055;59.436;24.778;2024-02-23T13:03:27;18.75;;;13.43;;
40907;SDS011;51055;59.436;24.778;2024-02-23T13:05:55;19.75;;;13.77;;
40907;SDS011;51055;59.436;24.778;2024-02-23T13:08:23;15.65;;;10.93;;
40907;SDS011;51055;59.436;24.778;2024-02-23T13:10:51;18.73;;;13.60;;
40907;SDS011;51055;59.436;24.778;2024-02-23T13:13:19;14.82;;;10.63;;
40907;SDS011;51055;59.436;24.778;2024-02-23T13:15:47;20.20;;;14.00;;
40907;SDS011;51055;59.436;24.778;2024-02-23T13:18:15;20.40;;;14.53;;
40907;SDS011;51055;59.436;24.778;2024-02-23T13:20:42;20.92;;;15.00;;
40907;SDS011;51055;59.436;24.778;2024-02-23T13:23:11;19.27;;;13.73;;
40907;SDS011;51055;59.436;24.778;2024-02-23T13:25:39;20.33;;;14.00;;
40907;SDS011;51055;59.436;24.778;2024-02-23T13:28:07;19.45;;;14.35;;
40907;SDS011;51055;59.436;24.778;2024-02-23T13:30:36;15.15;;;11.32;;
40907;SDS011;51055;59.436;24.778;2024-02-23T13:33:04;16.25;;;10.80;;
40907;SDS011;51055;59.436;24.778;2024-02-23T13:35:32;21.23;;;14.93;;
40907;SDS011;51055;59.436;24.778;2024-02-23T13:38:00;19.25;;;13.55;;
40907;SDS011;51055;59.436;24.778;2024-02-23T13:40:31;20.17;;;14.70;;
40907;SDS011;51055;59.436;24.778;2024-02-23T13:42:59;22.50;;;15.40;;
40907;SDS011;51055;59.436;24.778;2024-02-23T13:45:26;21.00;;;14.70;;
40907;SDS011;51055;59.436;24.778;2024-02-23T13:47:58;20.50;;;14.10;;
40907;SDS011;51055;59.436;24.778;2024-02-23T13:50:26;19.10;;;13.82;;
40907;SDS011;51055;59.436;24.778;2024-02-23T13:52:54;20.33;;;14.45;;
40907;SDS011;51055;59.436;24.778;2024-02-23T13:55:22;18.92;;;14.13;;
40907;SDS011;51055;59.436;24.778;2024-02-23T13:57:50;23.13;;;14.80;;
40907;SDS011;51055;59.436;24.778;2024-02-23T14:00:18;20.20;;;14.32;;
40907;SDS011;51055;59.436;24.778;2024-02-23T14:02:46;18.92;;;14.27;;
40907;SDS011;51055;59.436;24.778;2024-02-23T14:05:15;19.17;;;14.60;;
40907;SDS011;51055;59.436;24.778;2024-02-23T14:07:45;18.95;;;13.25;;
40907;SDS011;51055;59.436;24.778;2024-02-23T14:10:13;18.70;;;13.52;;
40907;SDS011;51055;59.436;24.778;2024-02-23T14:12:41;19.67;;;13.77;;
40907;SDS011;51055;59.436;24.778;2024-02-23T14:15:08;18.40;;;13.18;;
40907;SDS011;51055;59.436;24.778;2024-02-23T14:17:37;19.42;;;13.85;;
40907;SDS011;51055;59.436;24.778;2024-02-23T14:20:05;20.42;;;13.95;;
40907;SDS011;51055;59.436;24.778;2024-02-23T14:22:34;17.45;;;12.85;;
40907;SDS011;51055;59.436;24.778;2024-02-23T14:25:02;20.73;;;14.73;;
40907;SDS011;51055;59.436;24.778;2024-02-23T14:27:29;20.58;;;15.27;;
40907;SDS011;51055;59.436;24.778;2024-02-23T14:29:58;18.10;;;13.68;;
40907;SDS011;51055;59.436;24.778;2024-02-23T14:32:26;18.40;;;13.82;;